Time;durP1;ratioP1;P1;durP2;ratioP2;P2;SDS_P1;SDS_P2;PMS_P1;PMS_P2;Temp;Humidity;BMP_temperature;BMP_pressure;BME280_temperature;BME280_humidity;BME280_pressure;Samples;Min_cycle;Max_cycle;Signal;HPM_P1;HPM_P2
2021/11/12 00:12:34;;;;;;;5.47;1.13;;;29.70;26.60;;;;;;5076862;28;20074;-61
2021/11/12 00:15:00;;;;;;;7.38;1.17;;;29.70;26.80;;;;;;5056111;28;20067;-61
2021/11/12 00:17:32;;;;;;;7.30;1.17;;;29.60;26.90;;;;;;5038303;28;20083;-60
2021/11/12 00:19:59;;;;;;;9.18;1.10;;;29.50;26.70;;;;;;5050798;28;20091;-57
2021/11/12 00:22:27;;;;;;;8.50;1.80;;;29.50;26.90;;;;;;5073066;28;20050;-58
2021/11/12 00:24:56;;;;;;;13.68;1.52;;;29.40;27.10;;;;;;5057180;28;20447;-59
2021/11/12 00:27:25;;;;;;;9.73;1.52;;;29.30;27.10;;;;;;5040626;28;20521;-61
2021/11/12 00:32:43;;;;;;;6.45;1.52;;;29.10;27.30;;;;;;5074451;28;20135;-61
2021/11/12 00:40:31;;;;;;;12.18;1.90;;;28.80;27.70;;;;;;5074195;28;20147;-62
2021/11/12 00:45:30;;;;;;;9.30;1.85;;;28.60;27.70;;;;;;5072550;28;20090;-60
2021/11/12 00:48:09;;;;;;;18.35;1.98;;;28.60;28.00;;;;;;5072788;28;20065;-60
2021/11/12 00:55:39;;;;;;;16.80;2.30;;;28.30;28.60;;;;;;5070368;28;20061;-61
2021/11/12 00:58:07;;;;;;;13.68;2.42;;;28.20;29.00;;;;;;5038765;28;20082;-60
2021/11/12 01:00:34;;;;;;;16.83;2.95;;;28.10;29.40;;;;;;5075321;28;20109;-57
2021/11/12 01:03:01;;;;;;;16.33;2.80;;;28.00;29.40;;;;;;5065847;28;20552;-61
2021/11/12 01:05:30;;;;;;;15.15;2.90;;;27.90;29.40;;;;;;5073191;28;20096;-59
2021/11/12 01:08:00;;;;;;;21.67;3.40;;;27.80;29.60;;;;;;5060801;28;20087;-60
2021/11/12 01:10:29;;;;;;;9.25;2.53;;;27.70;29.70;;;;;;5066709;28;20092;-60
2021/11/12 01:12:57;;;;;;;19.95;2.97;;;27.60;29.60;;;;;;5053457;28;20163;-57
2021/11/12 01:15:24;;;;;;;30.65;9.85;;;27.50;29.80;;;;;;5063090;28;20159;-59
2021/11/12 01:17:51;;;;;;;20.33;9.00;;;27.50;29.70;;;;;;5070104;28;20150;-61
2021/11/12 01:20:19;;;;;;;22.20;6.63;;;27.40;29.40;;;;;;5079207;28;20091;-60
2021/11/12 01:22:48;;;;;;;19.80;4.78;;;27.40;29.40;;;;;;5046467;28;20473;-60
2021/11/12 01:25:18;;;;;;;14.25;4.47;;;27.30;29.70;;;;;;5063258;28;20090;-61
2021/11/12 01:27:45;;;;;;;27.30;6.63;;;27.20;30.00;;;;;;5051614;28;20073;-58
2021/11/12 01:30:15;;;;;;;23.63;6.88;;;27.10;30.10;;;;;;5061371;28;20079;-58
2021/11/12 01:32:43;;;;;;;12.63;3.38;;;27.00;30.40;;;;;;5061770;28;20076;-61
2021/11/12 01:35:10;;;;;;;18.85;2.85;;;27.00;30.20;;;;;;5079844;28;20135;-59
2021/11/12 01:37:37;;;;;;;9.95;2.33;;;27.00;30.10;;;;;;5062652;28;20074;-63
2021/11/12 01:40:08;;;;;;;9.35;3.00;;;26.90;29.80;;;;;;5061544;28;20626;-62
2021/11/12 01:43:15;;;;;;;26.00;3.80;;;26.90;30.00;;;;;;5062722;28;20167;-57
2021/11/12 01:45:51;;;;;;;14.25;3.15;;;26.80;30.50;;;;;;5058010;28;20459;-58
2021/11/12 01:53:42;;;;;;;20.48;5.30;;;26.50;31.40;;;;;;5063664;28;20113;-59
2021/11/12 01:58:52;;;;;;;19.15;4.20;;;26.30;32.00;;;;;;5080750;28;20075;-61
2021/11/12 02:01:21;;;;;;;23.50;3.83;;;26.20;32.20;;;;;;5044784;28;20140;-59
2021/11/12 02:03:52;;;;;;;32.45;4.55;;;26.10;32.10;;;;;;5045347;28;20080;-59
2021/11/12 02:06:23;;;;;;;45.92;6.75;;;26.00;32.90;;;;;;5060866;28;20537;-59
2021/11/12 02:08:50;;;;;;;28.13;4.63;;;26.00;33.40;;;;;;5062159;28;20084;-58
2021/11/12 02:11:17;;;;;;;26.42;4.10;;;25.90;33.90;;;;;;5062619;28;20067;-57
2021/11/12 02:13:45;;;;;;;23.88;3.90;;;25.70;33.40;;;;;;5081864;28;20079;-59
2021/11/12 02:16:17;;;;;;;25.10;4.10;;;25.70;33.50;;;;;;5063659;28;20163;-58
2021/11/12 02:18:45;;;;;;;35.17;4.88;;;25.60;33.40;;;;;;5062544;28;20074;-55
2021/11/12 02:21:33;;;;;;;22.48;4.28;;;25.50;33.90;;;;;;5065308;28;20442;-58
2021/11/12 02:24:04;;;;;;;29.25;4.30;;;25.40;34.00;;;;;;5050781;28;20061;-56
2021/11/12 02:26:37;;;;;;;27.48;4.65;;;25.30;34.10;;;;;;5058341;28;20091;-57
2021/11/12 02:29:06;;;;;;;33.17;5.03;;;25.30;34.60;;;;;;5078968;28;20489;-60
2021/11/12 02:31:33;;;;;;;32.80;6.28;;;25.20;34.90;;;;;;5068535;28;20071;-61
2021/11/12 02:34:10;;;;;;;27.27;6.82;;;25.10;35.10;;;;;;5062588;28;20075;-57
2021/11/12 02:36:37;;;;;;;42.90;8.27;;;25.10;35.40;;;;;;5060913;28;20083;-58
2021/11/12 02:39:07;;;;;;;33.38;6.28;;;25.00;35.50;;;;;;5044308;28;20081;-62
2021/11/12 02:41:34;;;;;;;33.97;6.78;;;24.90;34.90;;;;;;5063183;28;20530;-58
2021/11/12 02:44:02;;;;;;;37.90;6.70;;;24.90;34.90;;;;;;5044152;28;20117;-60
2021/11/12 02:46:30;;;;;;;33.58;6.13;;;24.90;35.50;;;;;;5076498;28;20084;-68
2021/11/12 02:48:57;;;;;;;33.58;6.43;;;24.90;35.40;;;;;;5062224;28;20077;-62
2021/11/12 02:51:31;;;;;;;25.65;6.10;;;24.90;35.90;;;;;;5060663;28;20085;-59
2021/11/12 02:53:59;;;;;;;32.75;5.85;;;24.80;35.80;;;;;;5033032;28;20513;-61
2021/11/12 02:56:29;;;;;;;37.60;5.80;;;24.80;36.20;;;;;;5070293;28;20566;-60
2021/11/12 02:59:03;;;;;;;30.15;5.47;;;24.70;35.20;;;;;;5088137;28;20171;-58
2021/11/12 03:01:35;;;;;;;35.88;5.68;;;24.80;35.00;;;;;;5054808;28;20547;-59
2021/11/12 03:04:01;;;;;;;29.17;6.32;;;24.70;35.20;;;;;;5064909;28;20077;-63
2021/11/12 03:06:28;;;;;;;46.88;6.35;;;24.70;35.40;;;;;;5068219;28;20139;-58
2021/11/12 03:09:01;;;;;;;29.30;6.40;;;24.70;35.90;;;;;;5057318;28;20073;-58
2021/11/12 03:11:28;;;;;;;41.97;6.20;;;24.60;36.30;;;;;;5050467;28;20069;-57
2021/11/12 03:13:54;;;;;;;33.88;5.85;;;24.50;36.70;;;;;;5083618;28;20451;-58
2021/11/12 03:16:21;;;;;;;31.65;6.40;;;24.50;37.10;;;;;;5068539;28;20108;-61
2021/11/12 03:18:47;;;;;;;39.15;6.68;;;24.30;36.70;;;;;;5070951;28;20441;-56
2021/11/12 03:21:18;;;;;;;56.88;8.27;;;24.20;36.70;;;;;;5066678;28;20433;-58
2021/11/12 03:23:53;;;;;;;41.20;8.27;;;24.20;37.80;;;;;;5066208;28;20075;-59
2021/11/12 03:26:43;;;;;;;32.78;7.97;;;24.10;37.10;;;;;;5065907;28;20092;-58
2021/11/12 04:04:26;;;;;;;56.78;7.47;;;22.90;68.10;;;;;;5074598;28;20111;-60
2021/11/12 05:09:46;;;;;;;29.08;6.40;;;23.10;40.80;;;;;;5073352;28;20070;-58
2021/11/12 05:57:23;;;;;;;14.55;2.58;;;22.80;37.20;;;;;;5057074;28;20102;-60
2021/11/12 05:59:49;;;;;;;11.40;1.70;;;22.90;37.30;;;;;;5053104;28;20128;-59
2021/11/12 06:02:16;;;;;;;9.88;2.08;;;22.90;37.70;;;;;;5079466;28;20548;-59
2021/11/12 06:04:43;;;;;;;11.82;2.28;;;22.90;38.10;;;;;;5072087;28;20095;-63
2021/11/12 06:07:10;;;;;;;13.05;2.00;;;22.80;38.40;;;;;;5052389;28;20122;-61
2021/11/12 06:09:37;;;;;;;13.30;1.98;;;22.80;38.70;;;;;;5057754;28;20163;-62
2021/11/12 06:12:04;;;;;;;22.25;2.30;;;22.70;39.70;;;;;;5055891;28;20561;-60
2021/11/12 06:14:30;;;;;;;14.10;2.25;;;22.60;39.80;;;;;;5055821;28;20069;-61
2021/11/12 06:16:57;;;;;;;18.48;2.63;;;22.30;61.50;;;;;;5090409;28;20103;-62
2021/11/12 06:19:24;;;;;;;9.40;2.03;;;22.80;70.80;;;;;;5068726;28;20503;-59
2021/11/12 06:21:51;;;;;;;8.65;2.30;;;22.40;41.40;;;;;;5074838;28;20133;-62
2021/11/12 06:24:17;;;;;;;10.52;2.72;;;22.30;40.60;;;;;;5071888;28;20126;-59
2021/11/12 06:26:44;;;;;;;22.20;2.88;;;22.30;40.50;;;;;;5061125;28;20183;-62
2021/11/12 06:29:11;;;;;;;19.73;4.63;;;22.30;40.50;;;;;;5090271;28;20081;-59
2021/11/12 06:31:38;;;;;;;32.80;7.25;;;22.30;41.20;;;;;;5055399;28;20080;-61
2021/11/12 06:34:04;;;;;;;25.83;9.75;;;22.30;41.40;;;;;;5071557;28;20543;-59
2021/11/12 06:36:31;;;;;;;32.20;11.18;;;22.20;67.40;;;;;;5054065;28;20084;-58
2021/11/12 06:38:57;;;;;;;27.60;6.28;;;;;;;;;;5072098;28;20075;-63
2021/11/12 06:49:29;;;;;;;18.95;4.45;;;22.10;77.80;;;;;;5089304;28;20171;-58
2021/11/12 06:51:56;;;;;;;28.55;5.50;;;21.70;44.40;;;;;;5036561;28;20064;-60
2021/11/12 06:54:23;;;;;;;39.92;9.10;;;21.70;43.20;;;;;;5056422;28;20521;-63
2021/11/12 06:56:49;;;;;;;80.82;28.08;;;21.80;50.90;;;;;;5035970;28;20515;-59
2021/11/12 06:59:15;;;;;;;80.45;28.38;;;21.60;43.10;;;;;;5039360;28;20419;-61
2021/11/12 07:01:43;;;;;;;88.03;30.00;;;21.50;43.50;;;;;;5069030;28;20092;-58
2021/11/12 07:04:10;;;;;;;33.50;7.85;;;21.50;43.70;;;;;;5051977;28;20069;-63
2021/11/12 07:06:36;;;;;;;23.95;4.40;;;;;;;;;;5052548;28;20101;-57
2021/11/12 07:09:06;;;;;;;19.90;5.18;;;21.80;43.30;;;;;;5053619;28;20183;-62
2021/11/12 07:11:33;;;;;;;19.67;4.40;;;21.60;42.50;;;;;;5071419;28;20086;-63
2021/11/12 07:13:59;;;;;;;19.65;3.50;;;21.10;77.80;;;;;;5045732;28;20076;-59
2021/11/12 07:16:26;;;;;;;19.27;3.70;;;21.60;42.60;;;;;;5044502;28;20600;-58
2021/11/12 07:18:54;;;;;;;25.88;4.40;;;21.60;42.60;;;;;;5046202;28;20109;-61
2021/11/12 07:21:23;;;;;;;16.35;3.15;;;21.60;43.10;;;;;;5060246;28;20407;-60
2021/11/12 07:23:50;;;;;;;19.17;2.53;;;21.60;43.00;;;;;;5063009;28;20065;-56
2021/11/12 07:26:17;;;;;;;14.30;2.28;;;21.80;73.00;;;;;;5062119;28;20085;-63
2021/11/12 07:28:46;;;;;;;27.63;3.22;;;21.50;43.10;;;;;;5060298;28;20086;-61
2021/11/12 07:31:15;;;;;;;17.52;3.53;;;21.50;42.80;;;;;;5060302;28;20228;-60
2021/11/12 07:33:42;;;;;;;22.70;5.15;;;21.40;43.10;;;;;;5077264;28;20118;-64
2021/11/12 07:38:59;;;;;;;26.25;7.25;;;21.30;43.70;;;;;;5049958;28;20076;-62
2021/11/12 07:44:12;;;;;;;39.00;7.40;;;21.20;42.20;;;;;;5079463;28;20080;-61
2021/11/12 07:49:11;;;;;;;31.70;5.43;;;21.20;41.80;;;;;;5083744;28;20069;-62
2021/11/12 07:51:40;;;;;;;29.08;5.38;;;21.20;41.60;;;;;;5063676;28;20089;-62
2021/11/12 07:54:07;;;;;;;27.73;4.03;;;21.20;41.30;;;;;;5048802;28;20088;-61
2021/11/12 07:56:33;;;;;;;23.70;3.80;;;20.70;41.40;;;;;;5065238;28;20076;-58
2021/11/12 07:59:00;;;;;;;24.75;4.00;;;21.10;41.50;;;;;;5064732;28;20082;-59
2021/11/12 08:01:27;;;;;;;28.23;4.53;;;21.20;68.60;;;;;;5064270;28;20199;-62
2021/11/12 08:03:56;;;;;;;23.48;4.03;;;21.10;41.60;;;;;;5064093;28;20422;-64
2021/11/12 08:06:25;;;;;;;20.48;3.05;;;21.10;41.70;;;;;;5081854;28;20111;-61
2021/11/12 08:09:15;;;;;;;10.40;2.40;;;21.50;73.80;;;;;;5064592;28;20075;-58
2021/11/12 08:12:22;;;;;;;9.25;2.22;;;21.10;41.80;;;;;;5081867;28;20476;-60
2021/11/12 08:14:32;;;;;;;7.97;2.10;;;21.20;41.90;;;;;;5062251;28;20073;-62
2021/11/12 08:17:13;;;;;;;9.88;2.05;;;21.60;67.40;;;;;;5064865;28;20099;-61
2021/11/12 08:19:47;;;;;;;9.23;2.25;;;21.10;42.10;;;;;;5066978;28;20121;-60
2021/11/12 08:22:19;;;;;;;18.70;2.78;;;21.10;42.70;;;;;;5065704;28;20507;-63
2021/11/12 08:30:16;;;;;;;28.50;5.03;;;20.90;43.20;;;;;;5082485;28;20128;-62
2021/11/12 08:38:02;;;;;;;31.45;6.55;;;20.80;41.80;;;;;;5083475;28;20076;-62
2021/11/12 08:48:24;;;;;;;21.50;5.28;;;20.80;41.80;;;;;;5083316;28;20195;-60
2021/11/12 08:50:50;;;;;;;18.98;4.75;;;20.80;42.10;;;;;;5080683;28;20081;-62
2021/11/12 08:53:18;;;;;;;28.08;5.07;;;20.80;42.50;;;;;;5081948;28;20446;-60
2021/11/12 08:55:47;;;;;;;27.63;4.93;;;20.70;42.70;;;;;;5064546;28;20080;-61
2021/11/12 08:58:13;;;;;;;28.20;4.60;;;20.70;43.00;;;;;;5081917;28;20069;-63
2021/11/12 09:00:42;;;;;;;29.10;5.50;;;20.70;43.20;;;;;;5064181;28;20136;-58
2021/11/12 09:03:10;;;;;;;23.30;4.97;;;20.60;43.70;;;;;;5064228;28;20520;-60
2021/11/12 09:05:37;;;;;;;23.15;4.00;;;20.60;44.00;;;;;;5080975;28;20100;-62
2021/11/12 09:08:05;;;;;;;32.38;4.65;;;20.50;44.30;;;;;;5062659;28;20538;-62
2021/11/12 09:10:32;;;;;;;29.15;4.95;;;20.40;44.50;;;;;;5064857;28;20517;-60
2021/11/12 09:13:07;;;;;;;26.58;4.35;;;20.30;44.60;;;;;;5047855;28;20153;-63
2021/11/12 09:15:33;;;;;;;21.17;4.00;;;20.20;45.20;;;;;;5048447;28;20470;-59
2021/11/12 09:18:01;;;;;;;30.15;4.88;;;20.10;45.20;;;;;;5063188;28;20081;-59
2021/11/12 09:20:29;;;;;;;21.95;4.25;;;20.00;45.50;;;;;;5046048;28;20611;-60
2021/11/12 09:22:57;;;;;;;22.35;4.13;;;19.90;45.60;;;;;;5080550;28;20474;-61
2021/11/12 09:25:24;;;;;;;28.13;4.00;;;20.00;45.70;;;;;;5065223;28;20073;-62
2021/11/12 09:27:51;;;;;;;23.75;3.67;;;20.00;46.30;;;;;;5045266;28;20080;-64
2021/11/12 09:30:22;;;;;;;20.15;3.50;;;20.00;46.00;;;;;;5080884;28;20107;-65
2021/11/12 09:32:50;;;;;;;21.33;4.07;;;20.10;45.50;;;;;;5047426;28;20068;-62
2021/11/12 09:35:17;;;;;;;20.52;3.75;;;20.20;44.50;;;;;;5042353;28;20156;-59
2021/11/12 09:37:43;;;;;;;13.50;2.88;;;20.20;43.90;;;;;;5081562;28;20079;-62
2021/11/12 09:40:10;;;;;;;14.73;3.50;;;20.30;43.00;;;;;;5053720;28;20070;-60
2021/11/12 09:42:38;;;;;;;15.73;3.25;;;20.40;42.70;;;;;;5080528;28;20081;-63
2021/11/12 09:45:07;;;;;;;14.18;2.92;;;20.50;42.50;;;;;;5061841;28;20081;-60
2021/11/12 09:47:34;;;;;;;19.70;3.42;;;20.50;42.20;;;;;;5062150;28;20093;-62
2021/11/12 09:50:04;;;;;;;11.70;2.65;;;20.60;42.20;;;;;;5052097;28;20089;-62
2021/11/12 09:52:32;;;;;;;11.45;2.13;;;20.60;42.80;;;;;;5081292;28;20061;-63
2021/11/12 09:55:00;;;;;;;13.25;1.73;;;20.70;42.20;;;;;;5081332;28;20064;-60
2021/11/12 09:57:27;;;;;;;7.15;2.00;;;20.70;42.30;;;;;;5062949;28;20084;-57
2021/11/12 10:00:00;;;;;;;10.27;1.92;;;20.70;42.50;;;;;;5079321;28;20113;-63
2021/11/12 10:02:28;;;;;;;8.38;1.50;;;20.80;42.80;;;;;;5061802;28;20083;-58
2021/11/12 10:04:55;;;;;;;11.48;1.88;;;20.80;43.00;;;;;;5068613;28;20084;-61
2021/11/12 10:07:23;;;;;;;7.38;1.70;;;20.90;43.30;;;;;;5062180;28;20104;-62
2021/11/12 10:10:12;;;;;;;11.35;1.73;;;20.90;43.40;;;;;;5081236;28;20073;-67
2021/11/12 10:12:47;;;;;;;11.60;1.88;;;20.80;43.70;;;;;;5062747;28;20103;-63
2021/11/12 10:15:24;;;;;;;13.77;2.30;;;20.80;43.70;;;;;;5067896;28;20072;-65
2021/11/12 10:17:51;;;;;;;16.70;2.47;;;20.80;43.70;;;;;;5062568;28;20072;-63
2021/11/12 10:20:21;;;;;;;12.30;2.25;;;20.70;43.80;;;;;;5035433;28;20072;-61
2021/11/12 10:22:50;;;;;;;13.75;2.10;;;20.70;44.10;;;;;;5035839;28;20163;-62
2021/11/12 10:25:17;;;;;;;10.70;1.60;;;20.60;44.40;;;;;;5061119;28;20069;-51
2021/11/12 10:27:51;;;;;;;8.00;1.42;;;20.60;44.60;;;;;;5046894;28;20151;-64
2021/11/12 10:30:24;;;;;;;7.47;1.25;;;20.60;44.50;;;;;;5045484;28;20097;-58
2021/11/12 10:32:56;;;;;;;4.35;1.10;;;20.60;44.30;;;;;;5060502;28;20077;-60
2021/11/12 10:35:28;;;;;;;10.40;1.13;;;20.60;44.30;;;;;;5063189;28;20076;-58
2021/11/12 10:38:06;;;;;;;7.00;1.05;;;20.60;44.20;;;;;;5046510;28;20116;-63
2021/11/12 10:40:33;;;;;;;10.07;1.48;;;20.60;44.10;;;;;;5049185;28;20064;-59
2021/11/12 10:42:59;;;;;;;14.90;1.50;;;20.70;44.20;;;;;;5063179;28;20111;-58
2021/11/12 10:45:34;;;;;;;10.00;1.58;;;20.70;44.30;;;;;;5061355;28;20071;-62
2021/11/12 10:48:09;;;;;;;12.63;1.40;;;20.70;44.30;;;;;;5059752;28;20072;-60
2021/11/12 10:50:44;;;;;;;9.48;1.92;;;20.70;44.50;;;;;;5045453;28;20124;-62
2021/11/12 10:53:11;;;;;;;12.68;2.00;;;20.70;44.40;;;;;;5061181;28;20072;-61
2021/11/12 10:55:38;;;;;;;14.95;1.83;;;20.60;44.30;;;;;;5063768;28;20081;-65
2021/11/12 10:58:13;;;;;;;9.32;1.58;;;20.70;44.20;;;;;;5061664;28;20076;-62
2021/11/12 11:00:46;;;;;;;9.00;1.63;;;20.70;43.90;;;;;;5047306;28;20108;-62
2021/11/12 11:03:21;;;;;;;8.38;1.08;;;20.70;43.40;;;;;;5062384;28;20166;-63
2021/11/12 11:05:58;;;;;;;5.15;1.05;;;20.80;42.90;;;;;;5062922;28;20507;-60
2021/11/12 11:08:27;;;;;;;3.83;1.25;;;20.90;42.40;;;;;;5063046;28;20100;-62
2021/11/12 11:11:02;;;;;;;2.30;0.80;;;21.10;42.10;;;;;;5046131;28;20142;-56
2021/11/12 11:13:32;;;;;;;6.68;1.50;;;21.20;42.00;;;;;;5046858;28;20076;-62
2021/11/12 11:16:00;;;;;;;5.43;1.30;;;21.20;41.70;;;;;;5046070;28;20435;-64
2021/11/12 11:19:14;;;;;;;4.32;0.90;;;21.30;41.50;;;;;;5061210;28;20150;-61
2021/11/12 11:21:33;;;;;;;5.60;1.08;;;21.40;41.50;;;;;;5061928;28;20077;-62
2021/11/12 11:24:05;;;;;;;2.60;1.02;;;21.40;41.60;;;;;;5066659;28;20530;-65
2021/11/12 11:26:37;;;;;;;7.45;1.30;;;21.40;41.70;;;;;;5083470;28;20096;-60
2021/11/12 11:29:06;;;;;;;5.57;1.70;;;21.40;41.70;;;;;;5084007;28;20130;-63
2021/11/12 11:31:33;;;;;;;7.38;1.33;;;21.40;41.80;;;;;;5050931;28;20088;-62
2021/11/12 11:34:01;;;;;;;5.22;1.48;;;21.30;41.80;;;;;;5066433;28;20590;-63
2021/11/12 11:36:30;;;;;;;8.45;1.42;;;21.30;41.90;;;;;;5082760;28;20123;-61
2021/11/12 11:38:59;;;;;;;9.32;2.13;;;21.20;42.20;;;;;;5088932;28;20108;-61
2021/11/12 11:41:26;;;;;;;5.32;2.17;;;21.20;42.10;;;;;;5049507;28;20172;-61
2021/11/12 11:43:54;;;;;;;10.00;2.55;;;21.10;42.20;;;;;;5066044;28;20073;-60
2021/11/12 11:46:28;;;;;;;9.73;2.75;;;21.10;42.20;;;;;;5083479;28;20113;-60
2021/11/12 11:49:00;;;;;;;8.45;3.13;;;21.00;42.40;;;;;;5083966;28;20440;-62
2021/11/12 11:51:37;;;;;;;11.07;3.00;;;20.90;42.80;;;;;;5050454;28;20084;-61
2021/11/12 11:54:05;;;;;;;20.17;3.38;;;20.80;43.10;;;;;;5069793;28;20134;-57
2021/11/12 11:56:38;;;;;;;11.18;3.47;;;20.60;43.50;;;;;;5066341;28;20080;-62
2021/11/12 11:59:28;;;;;;;8.02;3.45;;;20.60;43.70;;;;;;5049648;28;20077;-62
2021/11/12 12:02:18;;;;;;;11.95;3.55;;;20.60;43.90;;;;;;5066829;28;20085;-61
2021/11/12 12:05:00;;;;;;;10.25;3.28;;;20.50;43.90;;;;;;5065128;28;20155;-60
2021/11/12 12:07:39;;;;;;;8.25;2.90;;;20.50;43.10;;;;;;5065791;28;20597;-62
2021/11/12 12:10:16;;;;;;;7.53;2.58;;;20.60;43.00;;;;;;5049591;28;20073;-62
2021/11/12 12:12:49;;;;;;;9.75;2.22;;;20.60;42.90;;;;;;5064194;28;20060;-61
2021/11/12 12:15:17;;;;;;;4.18;1.70;;;20.60;43.10;;;;;;5069422;28;20609;-60
2021/11/12 12:17:48;;;;;;;4.13;1.55;;;20.60;43.50;;;;;;5065998;28;20085;-63
2021/11/12 12:34:48;;;;;;;6.88;0.70;;;20.80;43.70;;;;;;5083826;28;20119;-61
2021/11/12 13:23:13;;;;;;;9.88;2.10;;;20.00;47.50;;;;;;5081268;28;20143;-61
2021/11/12 13:25:50;;;;;;;7.95;2.15;;;19.90;47.30;;;;;;5049656;28;20599;-59
2021/11/12 13:28:16;;;;;;;;;;;19.80;46.70;;;;;;5064347;28;20484;-60
2021/11/12 13:30:58;;;;;;;10.50;2.60;;;19.70;47.10;;;;;;5081826;28;19957;-62
2021/11/12 13:33:28;;;;;;;9.32;2.67;;;19.70;46.80;;;;;;5082224;28;20069;-61
2021/11/12 13:35:55;;;;;;;9.20;3.80;;;19.70;46.50;;;;;;5080837;28;20122;-62
2021/11/12 13:38:22;;;;;;;11.77;5.20;;;19.70;46.60;;;;;;5063222;28;20077;-61
2021/11/12 13:40:48;;;;;;;12.00;4.57;;;19.70;46.10;;;;;;5047782;28;20181;-60
2021/11/12 13:43:27;;;;;;;10.25;4.57;;;19.70;45.90;;;;;;5063886;28;20159;-62
2021/11/12 13:45:59;;;;;;;13.80;4.53;;;19.80;45.70;;;;;;5064138;28;20092;-63
2021/11/12 13:48:26;;;;;;;9.55;3.75;;;19.70;46.10;;;;;;5080285;28;20073;-59
2021/11/12 13:51:00;;;;;;;15.52;2.80;;;19.70;45.90;;;;;;5064262;28;20146;-57
2021/11/12 13:53:30;;;;;;;14.18;2.55;;;19.70;45.90;;;;;;5064083;28;20561;-61
2021/11/12 13:55:58;;;;;;;9.70;1.63;;;19.80;45.80;;;;;;5062479;28;20547;-63
2021/11/12 13:58:26;;;;;;;8.40;1.45;;;19.80;45.80;;;;;;5048244;28;20168;-63
2021/11/12 14:00:54;;;;;;;7.20;1.45;;;19.90;45.80;;;;;;5063777;28;20113;-59
2021/11/12 14:03:40;;;;;;;7.68;1.17;;;20.00;45.70;;;;;;5063204;28;20168;-62
2021/11/12 14:06:09;;;;;;;8.57;1.42;;;20.10;45.80;;;;;;5066872;28;20093;-60
2021/11/12 14:08:37;;;;;;;8.48;1.15;;;20.10;45.70;;;;;;5073030;28;20122;-63
2021/11/12 14:11:25;;;;;;;8.48;1.35;;;20.00;46.00;;;;;;5073102;28;20549;-62
2021/11/12 14:13:59;;;;;;;4.20;1.48;;;20.10;45.90;;;;;;5064678;28;20553;-63
2021/11/12 14:16:50;;;;;;;6.15;1.27;;;20.10;46.00;;;;;;5063234;28;20068;-62
2021/11/12 14:21:56;;;;;;;14.02;2.38;;;20.10;46.00;;;;;;5057138;28;20194;-63
2021/11/12 14:27:14;;;;;;;19.38;2.00;;;20.00;46.40;;;;;;5090942;28;20084;-62
2021/11/12 14:30:16;;;;;;;11.13;1.80;;;20.00;46.40;;;;;;5090958;28;20560;-58
2021/11/12 14:32:53;;;;;;;16.90;2.90;;;20.00;47.30;;;;;;5078797;28;20527;-60
2021/11/12 14:38:14;;;;;;;15.38;2.60;;;20.00;48.70;;;;;;5090842;28;20088;-60
2021/11/12 14:41:11;;;;;;;10.77;2.63;;;20.00;47.50;;;;;;5072562;28;20077;-60
2021/11/12 14:43:50;;;;;;;15.48;2.63;;;20.00;47.60;;;;;;5073031;28;20167;-62
2021/11/12 14:51:57;;;;;;;15.50;2.25;;;20.00;50.90;;;;;;5072704;28;20088;-61
2021/11/12 14:54:49;;;;;;;11.82;2.10;;;19.90;50.20;;;;;;5058047;28;20429;-61
2021/11/12 14:57:37;;;;;;;15.77;2.45;;;19.90;51.90;;;;;;5073534;28;20073;-59
2021/11/12 15:00:12;;;;;;;14.90;2.40;;;19.90;51.90;;;;;;5080162;28;20112;-59
2021/11/12 15:02:41;;;;;;;22.00;3.30;;;20.00;51.40;;;;;;5094821;28;20526;-62
2021/11/12 15:05:09;;;;;;;18.02;3.50;;;20.00;50.90;;;;;;5094720;28;20496;-58
2021/11/12 15:07:46;;;;;;;17.33;2.70;;;20.10;50.40;;;;;;5076691;28;20088;-59
2021/11/12 15:10:16;;;;;;;18.13;2.60;;;20.10;50.80;;;;;;5078163;28;20095;-56
2021/11/12 15:12:47;;;;;;;20.45;2.58;;;20.10;51.30;;;;;;5076595;28;20076;-61
2021/11/12 15:15:13;;;;;;;14.70;2.20;;;20.20;48.40;;;;;;5077239;28;20519;-60
2021/11/12 15:17:41;;;;;;;13.68;2.33;;;20.40;47.60;;;;;;5075407;28;20092;-59
2021/11/12 15:20:08;;;;;;;15.88;2.95;;;20.50;47.80;;;;;;5066691;28;20085;-61
2021/11/12 15:30:09;;;;;;;14.25;2.13;;;21.10;46.10;;;;;;5093501;28;20069;-66
2021/11/12 15:32:38;;;;;;;13.63;2.42;;;21.30;46.00;;;;;;5059431;28;20079;-60
2021/11/12 15:35:11;;;;;;;19.67;2.83;;;21.40;46.10;;;;;;5075837;28;20061;-59
2021/11/12 15:45:20;;;;;;;16.10;3.45;;;22.00;45.60;;;;;;5067972;28;20151;-58
2021/11/12 15:47:55;;;;;;;18.23;3.60;;;22.10;45.70;;;;;;5074972;28;20096;-57
2021/11/12 15:50:35;;;;;;;23.63;3.95;;;22.30;44.50;;;;;;5075056;28;20129;-61
2021/11/12 15:58:27;;;;;;;16.02;3.95;;;23.10;44.20;;;;;;5075770;28;20150;-60
2021/11/12 16:08:49;;;;;;;18.77;3.50;;;24.20;41.50;;;;;;5092673;28;20426;-59
2021/11/12 16:11:36;;;;;;;26.98;2.90;;;24.60;40.60;;;;;;5065855;28;20061;-59
2021/11/12 16:14:08;;;;;;;23.35;2.78;;;25.10;40.50;;;;;;5056694;28;20474;-55
2021/11/12 16:19:28;;;;;;;42.70;4.10;;;26.10;38.90;;;;;;5088100;28;20084;-55
2021/11/12 16:26:55;;;;;;;48.38;4.47;;;28.60;35.50;;;;;;5065035;28;20081;-60
2021/11/12 16:29:42;;;;;;;35.67;4.28;;;29.40;34.10;;;;;;5063513;28;20168;-58
2021/11/12 16:32:11;;;;;;;;;;;30.30;31.90;;;;;;5065952;28;20064;-62
2021/11/12 16:34:44;;;;;;;33.00;4.10;;;30.90;30.00;;;;;;5047647;28;20052;-60
2021/11/12 16:37:11;;;;;;;21.70;2.33;;;31.30;29.80;;;;;;5058145;28;20231;-60
2021/11/12 16:44:59;;;;;;;19.80;2.08;;;32.90;51.40;;;;;;5090590;28;20085;-59
2021/11/12 16:50:15;;;;;;;16.08;1.30;;;;;;;;;;5060049;28;20084;-62
2021/11/12 17:06:31;;;;;;;13.48;2.58;;;35.40;24.30;;;;;;5066765;28;20099;-58
2021/11/12 17:11:38;;;;;;;6.88;1.45;;;36.70;23.20;;;;;;5091645;28;20074;-58
2021/11/12 17:17:49;;;;;;;13.55;1.90;;;38.10;52.70;;;;;;5091497;28;20039;-61
2021/11/12 17:44:50;;;;;;;10.45;1.55;;;37.60;22.20;;;;;;5056016;28;20083;-58
2021/11/12 17:47:09;;;;;;;7.43;2.03;;;39.50;21.10;;;;;;5080794;28;20203;-56
2021/11/12 17:49:46;;;;;;;3.55;1.08;;;40.10;20.00;;;;;;5055812;28;20079;-60
2021/11/12 17:52:32;;;;;;;6.28;1.08;;;40.10;19.60;;;;;;5057480;28;20170;-57
2021/11/12 18:03:19;;;;;;;5.40;0.90;;;41.20;19.10;;;;;;5062004;28;20057;-57
2021/11/12 21:45:11;;;;;;;6.38;0.80;;;32.10;26.70;;;;;;5071877;28;20099;-59
2021/11/12 21:47:01;;;;;;;3.38;0.70;;;31.80;25.20;;;;;;5062906;28;20179;-63
2021/11/12 21:49:28;;;;;;;0.82;0.52;;;31.50;25.30;;;;;;5055030;28;20079;-64
2021/11/12 21:51:56;;;;;;;5.53;0.70;;;31.40;25.60;;;;;;5053254;28;20073;-60
2021/11/12 21:54:23;;;;;;;2.53;0.60;;;31.30;26.70;;;;;;5057128;28;20075;-64
2021/11/12 21:56:49;;;;;;;6.50;0.57;;;31.30;24.70;;;;;;5065980;28;20076;-59
2021/11/12 21:59:16;;;;;;;4.88;0.80;;;31.30;26.70;;;;;;5056417;28;20116;-61
2021/11/12 22:01:44;;;;;;;6.80;1.02;;;31.30;26.40;;;;;;5071711;28;20457;-62
2021/11/12 22:04:11;;;;;;;2.72;0.85;;;31.30;24.20;;;;;;5071915;28;20082;-61
2021/11/12 22:06:38;;;;;;;4.88;1.20;;;31.30;25.40;;;;;;5089971;28;20115;-64
2021/11/12 22:09:05;;;;;;;4.90;0.98;;;31.30;24.60;;;;;;5072402;28;20068;-61
2021/11/12 22:11:31;;;;;;;7.18;1.10;;;31.40;23.40;;;;;;5066351;28;20179;-63
2021/11/12 22:13:57;;;;;;;5.03;1.00;;;31.40;24.00;;;;;;5090577;28;20151;-64
2021/11/12 22:16:24;;;;;;;5.53;0.73;;;31.40;23.50;;;;;;5070142;28;20097;-61
2021/11/12 22:18:51;;;;;;;2.15;0.70;;;31.60;23.20;;;;;;5036113;28;20450;-65
2021/11/12 22:21:18;;;;;;;5.70;1.38;;;31.50;23.50;;;;;;5036054;28;20481;-63
2021/11/12 22:23:45;;;;;;;3.20;1.15;;;31.50;23.60;;;;;;5052810;28;20077;-63
2021/11/12 22:26:12;;;;;;;5.97;0.80;;;31.60;23.40;;;;;;5053431;28;20577;-64
2021/11/12 22:28:38;;;;;;;6.18;0.90;;;31.60;22.70;;;;;;5043774;28;20081;-64
2021/11/12 22:31:05;;;;;;;5.40;1.00;;;31.60;23.60;;;;;;5055323;28;20069;-64
2021/11/12 22:33:31;;;;;;;6.78;1.23;;;31.60;23.60;;;;;;5070946;28;20080;-61
2021/11/12 22:35:58;;;;;;;6.03;0.70;;;31.60;24.70;;;;;;5070701;28;20164;-63
2021/11/12 22:38:26;;;;;;;5.15;0.70;;;31.50;35.80;;;;;;5079918;28;20435;-62
2021/11/12 22:40:53;;;;;;;3.97;0.85;;;31.60;22.70;;;;;;5062912;28;20083;-63
2021/11/12 22:43:22;;;;;;;2.38;0.68;;;31.60;22.90;;;;;;5061752;28;20068;-62
2021/11/12 22:45:49;;;;;;;6.32;0.88;;;31.50;23.00;;;;;;5045124;28;20076;-66
2021/11/12 22:48:15;;;;;;;11.23;1.23;;;31.50;24.20;;;;;;5046696;28;20144;-66
2021/11/12 22:50:43;;;;;;;4.82;0.80;;;31.50;23.70;;;;;;5061822;28;20179;-70
2021/11/12 22:53:09;;;;;;;1.95;0.70;;;31.50;23.00;;;;;;5082798;28;20087;-65
2021/11/12 22:55:36;;;;;;;8.13;0.95;;;31.50;23.80;;;;;;5061655;28;20525;-66
2021/11/12 22:58:03;;;;;;;4.32;0.95;;;31.60;23.00;;;;;;5085498;28;20129;-62
2021/11/12 23:00:32;;;;;;;3.15;0.80;;;31.60;22.90;;;;;;5081035;28;20103;-66